Raynesford, Montana
Current Conditions -  °F | °C
As of 5:56 AM on Wednesday 22 Oct 2014 (Local Time) from KGFA Reporting Station
Clear Clear  
Wind Chill: 31°   Ceiling: Unl
Heat Index: 40°   Visibility: 10mi
Dew Point: 34°   Wind: 15mph
Humidity: 80%   Direction: 210°SSW
Pressure: 29.95"   Gusts: NA
Location:  47.27°N, 110.73°W
Report Text: KGFA 221156Z AUTO 21013KT 10SM CLR 04/01 A2995 RMK AO2 SLP163 70038 T00420011 10067 20038 52004
Loading
Personal Weather Stations






























Interactive Weather Map
Tropical Storm Tracking
New forecast layout! Learn more

10-Day Weather Forecast

Advertisements
Track Severe Weather on mobile